Time;durP1;ratioP1;P1;durP2;ratioP2;P2;SDS_P1;SDS_P2;PMS_P1;PMS_P2;Temp;Humidity;BMP_temperature;BMP_pressure;BME280_temperature;BME280_humidity;BME280_pressure;Samples;Min_cycle;Max_cycle;Signal;HPM_P1;HPM_P2
2023/01/17 00:00:55;;;;;;;83.30;37.40;;;;;;;-143.84;100.00;44472.16;5093250;28;20843;-84
2023/01/17 00:03:23;;;;;;;75.27;38.17;;;;;;;-143.84;100.00;44470.25;5093131;28;20435;-84
2023/01/17 00:11:19;;;;;;;76.53;37.00;;;;;;;-143.84;100.00;44472.16;5092869;28;20527;-76
2023/01/17 00:13:48;;;;;;;71.90;35.43;;;;;;;-143.84;100.00;44464.53;5092516;28;20434;-77
2023/01/17 00:16:15;;;;;;;63.47;36.47;;;;;;;-143.84;100.00;44470.25;5092520;28;20447;-77
2023/01/17 00:26:01;;;;;;;54.30;29.87;;;;;;;-143.84;100.00;44470.25;5092621;28;20934;-77
2023/01/17 01:33:45;;;;;;;27.70;16.80;;;;;;;-143.84;96.66;44447.41;5091804;28;20406;-77
2023/01/17 01:36:14;;;;;;;32.17;18.80;;;;;;;-143.84;96.75;44456.94;5091722;28;20435;-77
2023/01/17 01:38:41;;;;;;;36.43;20.53;;;;;;;-143.84;96.60;44451.22;5091385;28;20444;-77
2023/01/17 01:41:08;;;;;;;30.27;19.23;;;;;;;-143.84;96.24;44449.31;5091757;28;21007;-77
2023/01/17 01:43:45;;;;;;;27.57;18.73;;;;;;;-143.84;95.57;44418.84;5092026;28;20439;-77
2023/01/17 01:46:14;;;;;;;31.57;17.60;;;;;;;-143.84;94.92;44401.72;5091766;28;20444;-77
2023/01/17 01:48:47;;;;;;;25.53;18.07;;;;;;;-143.84;94.66;44401.72;5091278;28;20443;-77
2023/01/17 01:51:19;;;;;;;29.77;19.80;;;;;;;-143.84;94.08;44333.19;5092588;28;20443;-77
2023/01/17 01:53:49;;;;;;;24.20;17.53;;;;;;;-143.84;93.74;44308.44;5095307;28;20493;-77
2023/01/17 01:56:18;;;;;;;21.43;15.50;;;;;;;-143.84;93.22;44274.16;5095384;28;20438;-77
2023/01/17 01:58:48;;;;;;;18.60;13.40;;;;;;;-143.84;92.76;44255.13;5095344;28;20953;-77
2023/01/17 02:01:16;;;;;;;16.85;12.90;;;;;;;-143.84;92.54;44238.00;5095411;28;20480;-77
2023/01/17 02:03:44;;;;;;;16.87;12.03;;;;;;;-143.84;92.16;44220.84;5095515;28;20473;-77
2023/01/17 02:06:25;;;;;;;16.73;11.67;;;;;;;-143.84;91.83;44203.72;5095237;28;20496;-77
2023/01/17 02:08:53;;;;;;;17.20;13.57;;;;;;;-143.84;92.06;44199.91;5095225;28;20466;-77
2023/01/17 02:11:21;;;;;;;21.53;13.20;;;;;;;-143.84;91.50;44188.50;5094733;28;21085;-77
2023/01/17 02:13:48;;;;;;;18.30;11.40;;;;;;;-143.84;91.32;44182.78;5094983;28;20444;-77
2023/01/17 02:16:30;;;;;;;17.53;11.90;;;;;;;-143.84;91.27;44180.88;5094697;28;20440;-77
2023/01/17 02:19:14;;;;;;;15.80;12.00;;;;;;;-143.84;91.23;44177.06;5094889;28;20493;-77
2023/01/17 02:21:54;;;;;;;22.27;13.00;;;;;;;-143.84;91.15;44173.25;5094655;28;20451;-76
2023/01/17 02:24:51;;;;;;;17.53;12.33;;;;;;;-143.84;91.18;44173.25;5094879;28;20438;-77
2023/01/17 02:27:25;;;;;;;17.57;14.03;;;;;;;-143.84;90.37;44154.22;5094698;28;20435;-77
2023/01/17 02:30:15;;;;;;;15.97;11.97;;;;;;;-143.84;90.49;44156.13;5094705;28;20508;-77
2023/01/17 02:32:51;;;;;;;15.00;12.20;;;;;;;-143.84;90.24;44140.91;5094949;28;20436;-77
2023/01/17 02:35:28;;;;;;;17.20;12.13;;;;;;;-143.84;90.29;44144.72;5094211;28;20516;-76
2023/01/17 02:38:03;;;;;;;18.60;13.13;;;;;;;-143.84;90.49;44148.53;5093977;28;20439;-76
2023/01/17 02:40:36;;;;;;;14.47;11.93;;;;;;;-143.84;90.23;44144.72;5093585;28;20526;-76
2023/01/17 02:43:09;;;;;;;20.07;13.50;;;;;;;-143.84;90.44;44142.81;5094217;28;20805;-76
2023/01/17 02:45:38;;;;;;;18.20;12.87;;;;;;;-143.84;90.60;44144.72;5094748;28;21187;-76
2023/01/17 02:48:07;;;;;;;17.80;13.07;;;;;;;-143.84;90.81;44152.31;5094010;28;20945;-76
2023/01/17 02:50:54;;;;;;;21.70;13.80;;;;;;;-143.84;91.08;44165.66;5094047;28;20522;-76
2023/01/17 02:53:34;;;;;;;20.10;14.00;;;;;;;-143.84;91.36;44167.56;5094408;28;20447;-77
2023/01/17 02:56:13;;;;;;;22.73;14.70;;;;;;;-143.84;91.35;44167.56;5094853;28;20427;-77
2023/01/17 02:58:59;;;;;;;19.30;15.20;;;;;;;-143.84;91.39;44173.25;5094449;28;20431;-77
2023/01/17 03:01:33;;;;;;;26.77;14.53;;;;;;;-143.84;91.32;44163.75;5093898;28;20472;-77
2023/01/17 03:04:04;;;;;;;15.40;13.63;;;;;;;-143.84;90.89;44148.53;5094142;28;20436;-77
2023/01/17 03:06:35;;;;;;;18.63;14.07;;;;;;;-143.84;91.21;44161.84;5094313;28;20910;-77
2023/01/17 03:09:03;;;;;;;17.13;13.40;;;;;;;-143.84;91.39;44163.75;5093837;28;20432;-77
2023/01/17 03:11:30;;;;;;;18.23;13.53;;;;;;;-143.84;91.75;44175.16;5093955;28;21372;-77
2023/01/17 03:13:58;;;;;;;14.43;11.20;;;;;;;-143.84;91.86;44184.69;5093880;28;20436;-77
2023/01/17 03:16:31;;;;;;;18.80;12.40;;;;;;;-143.84;91.97;44180.88;5094038;28;20862;-79
2023/01/17 03:18:58;;;;;;;24.23;13.57;;;;;;;-143.84;92.47;44194.22;5094251;28;20440;-79
2023/01/17 03:21:25;;;;;;;20.57;12.97;;;;;;;-143.84;92.28;44196.13;5094619;28;20831;-79
2023/01/17 03:23:53;;;;;;;16.83;12.73;;;;;;;-143.84;92.31;44199.91;5094144;28;20476;-79
2023/01/17 03:26:20;;;;;;;25.23;14.57;;;;;;;-143.84;92.57;44205.63;5093770;28;20437;-79
2023/01/17 03:28:47;;;;;;;33.60;12.53;;;;;;;-143.84;92.46;44211.34;5093525;28;20497;-79
2023/01/17 03:31:15;;;;;;;16.43;13.03;;;;;;;-143.84;92.76;44220.84;5093707;28;20834;-79
2023/01/17 03:33:43;;;;;;;26.63;14.03;;;;;;;-143.84;93.39;44232.28;5093366;28;20509;-78
2023/01/17 03:36:11;;;;;;;15.90;13.27;;;;;;;-143.84;93.37;44236.09;5093494;28;20493;-78
2023/01/17 03:38:38;;;;;;;19.13;12.57;;;;;;;-143.84;93.98;44243.69;5093124;28;20872;-78
2023/01/17 03:41:06;;;;;;;18.13;12.70;;;;;;;-143.84;93.85;44253.22;5093213;28;20439;-78
2023/01/17 03:43:33;;;;;;;19.60;12.97;;;;;;;-143.84;93.97;44258.94;5093429;28;20508;-78
2023/01/17 03:46:02;;;;;;;19.97;12.27;;;;;;;-143.84;93.82;44262.75;5093279;28;20504;-78
2023/01/17 03:48:30;;;;;;;19.33;13.37;;;;;;;-143.84;94.00;44272.25;5093046;28;20474;-78
2023/01/17 03:50:59;;;;;;;25.17;12.20;;;;;;;-143.84;93.98;44274.16;5093135;28;20497;-79
2023/01/17 03:53:26;;;;;;;24.63;14.33;;;;;;;-143.84;94.33;44281.78;5093142;28;20443;-77
2023/01/17 03:55:53;;;;;;;17.33;11.60;;;;;;;-143.84;94.24;44283.69;5092597;28;20496;-77
2023/01/17 03:58:20;;;;;;;20.47;10.60;;;;;;;-143.84;94.87;44295.09;5092822;28;20444;-77
2023/01/17 04:00:47;;;;;;;16.77;11.40;;;;;;;-143.84;94.61;44302.72;5092119;28;20451;-77
2023/01/17 04:03:14;;;;;;;18.97;11.53;;;;;;;-143.84;94.91;44314.13;5092202;28;20476;-77
2023/01/17 04:05:42;;;;;;;12.60;10.37;;;;;;;-143.84;94.65;44317.94;5090734;28;20444;-77
2023/01/17 04:08:10;;;;;;;18.67;12.07;;;;;;;-143.84;94.51;44325.56;5091318;28;20518;-77
2023/01/17 04:10:38;;;;;;;17.73;12.10;;;;;;;-143.84;95.28;44338.88;5092736;28;20501;-77
2023/01/17 04:13:05;;;;;;;17.10;11.17;;;;;;;-143.84;95.45;44356.03;5092512;28;20467;-77
2023/01/17 04:15:33;;;;;;;16.83;12.33;;;;;;;-143.84;95.30;44350.31;5091989;28;20959;-77
2023/01/17 04:18:01;;;;;;;15.33;12.27;;;;;;;-143.84;95.16;44356.03;5092395;28;20442;-77
2023/01/17 04:20:32;;;;;;;28.33;12.70;;;;;;;-143.84;95.22;44356.03;5092554;28;20439;-77
2023/01/17 04:22:59;;;;;;;20.87;12.87;;;;;;;-143.84;95.42;44371.25;5092517;28;20486;-77
2023/01/17 04:25:29;;;;;;;16.17;11.50;;;;;;;-143.84;95.47;44382.69;5092296;28;20852;-78
2023/01/17 04:27:57;;;;;;;18.23;11.00;;;;;;;-143.84;95.69;44403.63;5092201;28;20526;-77
2023/01/17 04:30:24;;;;;;;17.67;11.77;;;;;;;-143.84;95.66;44405.53;5092186;28;20925;-79
2023/01/17 04:32:51;;;;;;;17.40;10.20;;;;;;;-143.84;95.67;44399.81;5092850;28;20436;-80
2023/01/17 04:35:19;;;;;;;14.57;10.40;;;;;;;-143.84;96.18;44411.22;5092234;28;21033;-83
2023/01/17 04:37:46;;;;;;;12.90;9.97;;;;;;;-143.84;95.89;44397.91;5092515;28;20444;-87
2023/01/17 04:40:13;;;;;;;12.60;10.90;;;;;;;-143.84;95.19;44356.03;5086459;28;20453;-82
2023/01/17 04:42:44;;;;;;;17.13;12.20;;;;;;;-143.84;95.16;44359.84;5072254;28;21139;-80
2023/01/17 04:45:12;;;;;;;23.53;12.80;;;;;;;-143.84;95.25;44365.53;5072265;28;20429;-80
2023/01/17 04:47:39;;;;;;;20.90;13.50;;;;;;;-143.84;95.27;44380.78;5071917;28;20482;-81
2023/01/17 04:50:07;;;;;;;24.60;13.80;;;;;;;-143.84;95.42;44382.69;5072624;28;20499;-80
2023/01/17 04:52:35;;;;;;;33.90;13.63;;;;;;;-143.84;95.44;44390.28;5072148;28;20430;-82
2023/01/17 04:55:02;;;;;;;20.10;11.50;;;;;;;-143.84;95.22;44352.22;5072099;28;20434;-82
2023/01/17 04:57:29;;;;;;;12.07;9.40;;;;;;;-143.84;94.54;44316.03;5071730;28;20441;-77
2023/01/17 04:59:57;;;;;;;18.53;9.37;;;;;;;-143.84;94.55;44298.91;5072214;28;20433;-82
2023/01/17 05:02:24;;;;;;;18.37;11.43;;;;;;;-143.84;94.37;44295.09;5072458;28;20443;-82
2023/01/17 05:04:51;;;;;;;26.80;12.17;;;;;;;-143.84;94.74;44316.03;5071845;28;20494;-80
2023/01/17 05:07:19;;;;;;;13.10;9.63;;;;;;;-143.84;94.59;44312.25;5071824;28;20431;-81
2023/01/17 05:09:46;;;;;;;24.10;11.50;;;;;;;-143.84;94.26;44293.19;5071592;28;20494;-82
2023/01/17 05:12:13;;;;;;;12.63;9.60;;;;;;;-143.84;94.05;44268.44;5071631;28;20519;-79
2023/01/17 05:14:40;;;;;;;14.60;10.37;;;;;;;-143.84;93.88;44255.13;5072240;28;20500;-80
2023/01/17 05:17:10;;;;;;;17.10;11.47;;;;;;;-143.84;93.55;44241.81;5072331;28;20490;-79
2023/01/17 05:19:37;;;;;;;17.33;10.90;;;;;;;-143.84;93.34;44239.91;5071931;28;20445;-79
2023/01/17 05:22:13;;;;;;;17.03;10.50;;;;;;;-143.84;93.20;44220.84;5091685;28;20425;-81
2023/01/17 05:24:41;;;;;;;13.77;11.03;;;;;;;-143.84;92.96;44207.53;5092220;28;20505;-81
2023/01/17 05:27:08;;;;;;;19.80;11.40;;;;;;;-143.84;92.67;44201.81;5094516;28;20470;-79
2023/01/17 05:29:35;;;;;;;16.70;11.83;;;;;;;-143.84;92.58;44184.69;5095488;28;20434;-80
2023/01/17 05:32:03;;;;;;;20.77;11.50;;;;;;;-143.84;92.61;44194.22;5096127;28;20453;-82
2023/01/17 05:34:33;;;;;;;19.40;11.83;;;;;;;-143.84;92.52;44188.50;5095198;28;20449;-80
2023/01/17 05:37:00;;;;;;;29.23;11.23;;;;;;;-143.84;92.77;44182.78;5096378;28;20447;-87
2023/01/17 05:39:27;;;;;;;35.50;13.67;;;;;;;-143.84;93.69;44245.59;5095463;28;20456;-82
2023/01/17 05:41:54;;;;;;;14.53;10.27;;;;;;;-143.84;94.60;44297.00;5099182;28;20477;-80
2023/01/17 05:44:22;;;;;;;14.97;10.57;;;;;;;-143.84;94.95;44319.84;5090419;28;20537;-83
2023/01/17 05:46:52;;;;;;;16.70;10.50;;;;;;;-143.84;95.37;44361.72;5074765;28;20442;-83
2023/01/17 05:49:21;;;;;;;18.63;10.87;;;;;;;-143.84;95.63;44380.78;5074489;28;20437;-83
2023/01/17 05:51:58;;;;;;;24.63;11.43;;;;;;;-143.84;95.67;44386.47;5074752;28;21429;-83
2023/01/17 05:54:28;;;;;;;17.33;10.40;;;;;;;-143.84;95.43;44380.78;5074213;28;20443;-83
2023/01/17 05:56:55;;;;;;;19.40;10.20;;;;;;;-143.84;95.22;44361.72;5075234;28;20434;-83
2023/01/17 05:59:22;;;;;;;14.43;10.23;;;;;;;-143.84;95.35;44376.97;5074645;28;20431;-83
2023/01/17 06:01:49;;;;;;;20.80;11.57;;;;;;;-143.84;95.26;44369.34;5073674;28;20443;-83
2023/01/17 06:04:16;;;;;;;15.83;10.10;;;;;;;-143.84;95.10;44352.22;5073851;28;20559;-83
2023/01/17 06:06:44;;;;;;;12.20;9.17;;;;;;;-143.84;94.72;44323.66;5074291;28;20427;-83
2023/01/17 06:09:12;;;;;;;23.07;9.37;;;;;;;-143.84;94.77;44323.66;5074094;28;20416;-83
2023/01/17 06:11:39;;;;;;;21.00;12.43;;;;;;;-143.84;94.50;44306.53;5073674;28;20556;-83
2023/01/17 06:14:07;;;;;;;20.13;12.53;;;;;;;-143.84;94.35;44285.59;5074555;28;20856;-83
2023/01/17 06:16:34;;;;;;;21.73;10.97;;;;;;;-143.84;94.43;44279.88;5074614;28;20442;-83
2023/01/17 06:19:01;;;;;;;19.83;10.37;;;;;;;-143.84;94.06;44260.84;5074521;28;20470;-83
2023/01/17 06:21:29;;;;;;;18.83;12.27;;;;;;;-143.84;93.71;44260.84;5074183;28;20429;-83
2023/01/17 06:23:56;;;;;;;15.17;11.53;;;;;;;-143.84;93.92;44251.31;5074451;28;21053;-83
2023/01/17 06:26:25;;;;;;;17.27;11.37;;;;;;;-143.84;93.78;44245.59;5074485;28;20432;-83
2023/01/17 06:28:52;;;;;;;13.90;9.53;;;;;;;-143.84;93.91;44245.59;5093673;28;20449;-83
2023/01/17 06:31:20;;;;;;;21.17;9.50;;;;;;;-143.84;94.02;44257.03;5094214;28;20494;-83
2023/01/17 06:33:47;;;;;;;18.47;11.20;;;;;;;-143.84;93.91;44255.13;5094529;28;20488;-83
2023/01/17 06:36:14;;;;;;;24.37;11.73;;;;;;;-143.84;94.11;44260.84;5094235;28;20489;-83
2023/01/17 06:38:41;;;;;;;15.00;9.83;;;;;;;-143.84;94.02;44266.53;5093981;28;20441;-83
2023/01/17 06:41:08;;;;;;;24.80;12.30;;;;;;;-143.84;94.41;44281.78;5094242;28;20480;-83
2023/01/17 06:43:37;;;;;;;17.50;9.87;;;;;;;-143.84;94.50;44283.69;5093978;28;20472;-83
2023/01/17 06:46:04;;;;;;;19.53;11.90;;;;;;;-143.84;94.80;44298.91;5094138;28;20503;-83
2023/01/17 06:48:31;;;;;;;24.33;11.40;;;;;;;-143.84;94.56;44298.91;5093680;28;20450;-83
2023/01/17 06:50:58;;;;;;;18.73;10.63;;;;;;;-143.84;94.64;44308.44;5094489;28;20488;-83
2023/01/17 06:53:26;;;;;;;16.77;11.87;;;;;;;-143.84;94.90;44304.63;5094679;28;20431;-83
2023/01/17 06:55:56;;;;;;;23.30;12.97;;;;;;;-143.84;94.93;44312.25;5094743;28;20446;-83
2023/01/17 06:58:23;;;;;;;27.10;12.70;;;;;;;-143.84;94.55;44297.00;5094646;28;20423;-83
2023/01/17 07:00:52;;;;;;;17.90;12.33;;;;;;;-143.84;94.51;44285.59;5094288;28;20512;-83
2023/01/17 07:03:35;;;;;;;27.00;13.27;;;;;;;-143.84;94.31;44276.06;5094458;28;20466;-83
2023/01/17 07:06:03;;;;;;;23.00;14.30;;;;;;;-143.84;94.45;44274.16;5094507;28;20440;-83
2023/01/17 07:08:30;;;;;;;33.30;14.20;;;;;;;-143.84;94.40;44279.88;5094438;28;20428;-81
2023/01/17 07:11:00;;;;;;;24.23;14.67;;;;;;;-143.84;94.18;44264.66;5094126;28;20454;-81
2023/01/17 07:13:28;;;;;;;29.90;14.57;;;;;;;-143.84;94.03;44245.59;5094057;28;20472;-81
2023/01/17 07:16:00;;;;;;;25.60;14.47;;;;;;;-143.84;93.96;44245.59;5093927;28;20439;-81
2023/01/17 07:18:27;;;;;;;26.13;14.13;;;;;;;-143.84;94.28;44270.34;5094013;28;20441;-81
2023/01/17 07:20:54;;;;;;;26.63;13.93;;;;;;;-143.84;94.90;44298.91;5093885;28;20434;-81
2023/01/17 07:23:24;;;;;;;23.20;14.37;;;;;;;-143.84;95.05;44325.56;5094012;28;20531;-81
2023/01/17 07:25:52;;;;;;;33.30;15.70;;;;;;;-143.84;95.27;44327.47;5093726;28;20500;-81
2023/01/17 07:28:19;;;;;;;28.10;13.27;;;;;;;-143.84;95.47;44344.59;5093466;28;20470;-81
2023/01/17 07:30:46;;;;;;;24.60;14.40;;;;;;;-143.84;96.04;44382.69;5093630;28;20919;-81
2023/01/17 07:33:16;;;;;;;20.33;10.80;;;;;;;-143.84;96.36;44401.72;5091536;28;20494;-81
2023/01/17 07:35:43;;;;;;;21.30;10.97;;;;;;;-143.84;96.37;44413.13;5091988;28;20444;-81
2023/01/17 07:38:15;;;;;;;16.90;9.43;;;;;;;-143.84;96.71;44420.75;5093881;28;20441;-83
2023/01/17 07:40:42;;;;;;;17.07;9.53;;;;;;;-143.84;96.23;44413.13;5093460;28;20430;-83
2023/01/17 07:43:13;;;;;;;17.73;8.77;;;;;;;-143.84;96.19;44399.81;5093366;28;20434;-83
2023/01/17 07:45:44;;;;;;;12.60;7.60;;;;;;;-143.84;96.01;44388.38;5093346;28;20677;-83
2023/01/17 07:48:12;;;;;;;14.53;8.77;;;;;;;-143.84;95.72;44384.59;5092691;28;20440;-83
2023/01/17 07:50:40;;;;;;;11.93;7.40;;;;;;;-143.84;95.03;44327.47;5093009;28;20456;-83
2023/01/17 07:53:08;;;;;;;23.53;8.07;;;;;;;-143.84;94.42;44277.97;5093240;28;20443;-83
2023/01/17 07:55:35;;;;;;;19.23;10.63;;;;;;;-143.84;93.92;44234.19;5093424;28;20431;-83
2023/01/17 07:58:02;;;;;;;21.90;9.67;;;;;;;-143.84;93.50;44224.66;5093260;28;20418;-84
2023/01/17 08:00:29;;;;;;;11.37;7.83;;;;;;;-143.84;93.79;44226.56;5093020;28;20444;-83
2023/01/17 08:02:57;;;;;;;15.73;8.33;;;;;;;-143.84;94.00;44232.28;5093251;28;20476;-83
2023/01/17 08:05:25;;;;;;;13.53;9.20;;;;;;;-143.84;93.18;44222.75;5092876;28;20508;-83
2023/01/17 08:07:54;;;;;;;20.83;9.60;;;;;;;-143.84;93.41;44220.84;5092943;28;20933;-83
2023/01/17 08:10:21;;;;;;;23.07;11.97;;;;;;;-143.84;93.59;44222.75;5092912;28;20512;-83
2023/01/17 08:12:49;;;;;;;22.03;11.80;;;;;;;-143.84;93.72;44226.56;5093029;28;20473;-83
2023/01/17 08:15:18;;;;;;;24.40;13.30;;;;;;;-143.84;93.70;44226.56;5092809;28;20491;-83
2023/01/17 08:17:48;;;;;;;20.27;13.53;;;;;;;-143.84;93.52;44224.66;5093129;28;20423;-83
2023/01/17 08:20:16;;;;;;;24.87;13.27;;;;;;;-143.84;93.87;44226.56;5093147;28;20432;-83
2023/01/17 08:22:43;;;;;;;34.00;13.17;;;;;;;-143.84;93.81;44238.00;5092680;28;20974;-83
2023/01/17 08:25:12;;;;;;;32.10;12.10;;;;;;;-143.84;94.06;44243.69;5093041;28;21062;-83
2023/01/17 08:27:40;;;;;;;28.63;13.10;;;;;;;-143.84;94.33;44253.22;5092524;28;20451;-83
2023/01/17 08:30:09;;;;;;;30.63;13.27;;;;;;;-143.84;94.22;44255.13;5092635;28;20858;-83
2023/01/17 08:32:39;;;;;;;25.50;13.50;;;;;;;-143.84;94.16;44251.31;5092426;28;20434;-82
2023/01/17 08:35:06;;;;;;;24.33;10.80;;;;;;;-143.84;93.96;44243.69;5092590;28;20474;-82
2023/01/17 08:37:36;;;;;;;24.83;12.10;;;;;;;-143.84;94.08;44253.22;5092721;28;20433;-82
2023/01/17 08:40:04;;;;;;;18.13;12.10;;;;;;;-143.84;94.61;44287.50;5092429;28;20504;-83
2023/01/17 08:42:38;;;;;;;28.43;15.77;;;;;;;-143.84;94.54;44297.00;5092324;28;20952;-83
2023/01/17 08:45:07;;;;;;;27.90;12.80;;;;;;;-143.84;93.80;44255.13;5092288;28;20479;-83
2023/01/17 08:47:35;;;;;;;26.73;12.70;;;;;;;-143.84;93.76;44236.09;5092145;28;20440;-83
2023/01/17 08:50:02;;;;;;;17.07;11.13;;;;;;;-143.84;92.97;44198.00;5092265;28;20471;-82
2023/01/17 08:52:29;;;;;;;19.27;10.70;;;;;;;-143.84;91.26;44137.09;5092694;28;20994;-83
2023/01/17 08:54:56;;;;;;;30.27;12.80;;;;;;;-143.84;90.25;44100.94;5092462;28;20784;-83
2023/01/17 08:57:23;;;;;;;22.77;10.03;;;;;;;-143.84;90.19;44114.25;5092567;28;20485;-83
2023/01/17 08:59:52;;;;;;;29.73;10.53;;;;;;;-143.84;90.21;44118.06;5092157;28;21003;-83
2023/01/17 09:02:22;;;;;;;28.20;9.40;;;;;;;-143.84;89.23;44085.69;5092209;28;20436;-83
2023/01/17 09:04:50;;;;;;;18.20;7.80;;;;;;;-143.84;88.47;44062.84;5091896;28;20833;-83
2023/01/17 09:07:19;;;;;;;16.40;8.80;;;;;;;-143.84;86.53;44011.47;5092401;28;20440;-83
2023/01/17 09:09:47;;;;;;;15.13;9.00;;;;;;;-143.84;84.72;43954.34;5091934;28;20489;-83
2023/01/17 09:12:14;;;;;;;13.83;8.20;;;;;;;-143.84;84.65;43961.97;5091899;28;20620;-82
2023/01/17 09:14:42;;;;;;;14.20;6.90;;;;;;;-143.84;84.03;43931.50;5092291;28;20481;-82
2023/01/17 09:17:10;;;;;;;14.00;7.80;;;;;;;-143.84;84.03;43939.13;5092372;28;20433;-83
2023/01/17 09:19:40;;;;;;;17.60;8.90;;;;;;;-143.84;83.68;43929.59;5091912;28;20443;-82
2023/01/17 09:22:08;;;;;;;11.67;7.03;;;;;;;-143.84;83.65;43927.69;5092168;28;20882;-82
2023/01/17 09:24:36;;;;;;;9.80;6.67;;;;;;;-143.84;84.32;43971.47;5092162;28;20464;-83
2023/01/17 09:27:04;;;;;;;17.63;8.60;;;;;;;-143.84;84.48;43958.16;5092509;28;21401;-83
2023/01/17 09:29:31;;;;;;;16.27;7.73;;;;;;;-143.84;85.00;43960.06;5091723;28;20499;-83
2023/01/17 09:31:59;;;;;;;19.03;7.20;;;;;;;-143.84;85.64;43990.53;5091924;28;20440;-83
2023/01/17 09:34:29;;;;;;;22.17;7.80;;;;;;;-143.84;86.28;44003.84;5092142;28;20432;-83
2023/01/17 09:36:56;;;;;;;19.27;8.53;;;;;;;-143.84;86.41;44022.88;5091940;28;20450;-83
2023/01/17 09:39:24;;;;;;;24.37;8.57;;;;;;;-143.84;86.99;44019.06;5091772;28;20843;-83
2023/01/17 09:41:59;;;;;;;14.63;8.40;;;;;;;-143.84;86.65;44028.59;5091552;28;20500;-83
2023/01/17 09:44:29;;;;;;;27.40;8.40;;;;;;;-143.84;86.59;44017.16;5091685;28;20492;-83
2023/01/17 09:47:03;;;;;;;25.77;8.47;;;;;;;-143.84;87.28;44019.06;5092005;28;20971;-83
2023/01/17 09:49:38;;;;;;;21.87;9.97;;;;;;;-143.84;87.86;44024.78;5090612;28;20439;-83
2023/01/17 09:52:08;;;;;;;34.67;10.50;;;;;;;-143.84;88.45;44072.38;5091599;28;20431;-83
2023/01/17 09:54:39;;;;;;;18.77;8.20;;;;;;;-143.84;86.73;44024.78;5091496;28;21010;-83
2023/01/17 09:57:16;;;;;;;25.23;9.73;;;;;;;-143.84;86.86;44007.66;5091533;28;20557;-83
2023/01/17 09:59:54;;;;;;;16.70;8.00;;;;;;;-143.84;86.71;44028.59;5091133;28;20959;-83
2023/01/17 10:03:02;;;;;;;17.30;8.73;;;;;;;-143.84;86.32;44005.75;5091058;28;20496;-83
2023/01/17 10:05:47;;;;;;;27.00;9.97;;;;;;;-143.84;86.83;44017.16;5028692;28;20478;-83
2023/01/17 10:08:32;;;;;;;23.40;9.37;;;;;;;-143.84;86.88;44011.47;5088431;28;20492;-83
2023/01/17 10:11:17;;;;;;;23.70;9.13;;;;;;;-143.84;86.91;44015.25;5091200;28;20501;-83
2023/01/17 10:13:53;;;;;;;18.10;9.93;;;;;;;-143.84;86.24;44007.66;5094152;28;20436;-83
2023/01/17 10:16:34;;;;;;;24.87;8.80;;;;;;;-143.84;86.54;44028.59;5094714;28;20870;-83
2023/01/17 10:19:19;;;;;;;17.30;9.47;;;;;;;-143.84;87.15;44011.47;5094911;28;20424;-83
2023/01/17 10:22:21;;;;;;;24.10;10.47;;;;;;;-143.84;86.63;44019.06;5094555;28;20424;-83
2023/01/17 10:25:11;;;;;;;23.07;8.90;;;;;;;-143.84;86.28;43992.41;5094742;28;20466;-83
2023/01/17 10:27:42;;;;;;;20.20;9.60;;;;;;;-143.84;86.25;43994.31;5094806;28;20507;-83
2023/01/17 10:30:17;;;;;;;14.20;9.00;;;;;;;-143.84;85.88;43990.53;5094728;28;20431;-83
2023/01/17 10:32:49;;;;;;;25.27;11.63;;;;;;;-143.84;86.11;43998.13;5094255;28;20432;-83
2023/01/17 10:35:23;;;;;;;25.10;12.00;;;;;;;-143.84;85.98;43988.63;5094501;28;20522;-83
2023/01/17 10:37:55;;;;;;;22.13;12.00;;;;;;;-143.84;86.28;44011.47;5094370;28;20992;-83
2023/01/17 10:40:28;;;;;;;28.03;12.53;;;;;;;-143.84;85.82;43998.13;5094452;28;20444;-83
2023/01/17 10:43:03;;;;;;;27.93;11.80;;;;;;;-143.84;84.92;43979.09;5094116;28;20941;-83
2023/01/17 10:45:36;;;;;;;36.53;12.27;;;;;;;-143.84;84.25;43950.53;5094076;28;20477;-83
2023/01/17 10:48:13;;;;;;;24.30;11.70;;;;;;;-143.84;83.96;43933.41;5094094;28;20439;-83
2023/01/17 10:50:49;;;;;;;22.93;11.27;;;;;;;-143.84;84.30;43952.44;5094247;28;20431;-83
2023/01/17 10:53:33;;;;;;;25.30;11.50;;;;;;;-143.84;85.05;43961.97;5093775;28;20790;-83
2023/01/17 10:56:02;;;;;;;35.00;12.20;;;;;;;-143.84;85.38;43981.00;5093788;28;20455;-83
2023/01/17 10:58:30;;;;;;;34.87;13.27;;;;;;;-143.84;85.99;43988.63;5092936;28;20446;-81
2023/01/17 11:01:00;;;;;;;26.63;12.23;;;;;;;-143.84;86.71;44009.56;5092493;28;20521;-81
2023/01/17 11:03:28;;;;;;;22.03;9.90;;;;;;;-143.84;85.55;43971.47;5093619;28;20431;-81
2023/01/17 11:06:17;;;;;;;31.10;10.87;;;;;;;-143.84;84.73;43948.63;5093685;28;20567;-81
2023/01/17 11:08:54;;;;;;;24.40;12.20;;;;;;;-143.84;84.57;43952.44;5093835;28;20440;-81
2023/01/17 11:11:24;;;;;;;26.83;11.13;;;;;;;-143.84;84.61;43946.75;5093818;28;21380;-81
2023/01/17 11:13:54;;;;;;;25.93;11.23;;;;;;;-143.84;85.19;43981.00;5093900;28;20758;-81
2023/01/17 11:16:23;;;;;;;19.53;11.10;;;;;;;-143.84;85.68;43977.19;5093615;28;20436;-81
2023/01/17 11:19:06;;;;;;;34.50;12.23;;;;;;;-143.84;85.61;43984.81;5093371;28;20439;-80
2023/01/17 11:21:34;;;;;;;24.37;10.87;;;;;;;-143.84;85.11;43958.16;5093575;28;21403;-80
2023/01/17 11:24:10;;;;;;;18.67;10.90;;;;;;;-143.84;85.63;43979.09;5093811;28;20425;-81
2023/01/17 11:26:48;;;;;;;19.63;10.80;;;;;;;-143.84;86.42;44013.38;5093585;28;20529;-81
2023/01/17 11:29:22;;;;;;;27.63;10.80;;;;;;;-143.84;84.03;43946.75;5093249;28;20922;-81
2023/01/17 11:31:50;;;;;;;32.10;11.70;;;;;;;-143.84;84.12;43956.25;5093320;28;20431;-80
2023/01/17 11:34:22;;;;;;;20.60;9.40;;;;;;;-143.84;83.29;43914.38;5093406;28;20949;-81
2023/01/17 11:37:07;;;;;;;26.13;10.90;;;;;;;-143.84;82.64;43910.56;5093402;28;20465;-82
2023/01/17 11:39:35;;;;;;;20.40;8.97;;;;;;;-143.84;81.15;43864.88;5093253;28;20436;-82
2023/01/17 11:42:06;;;;;;;32.73;9.87;;;;;;;-143.84;81.57;43902.97;5093420;28;20660;-82
2023/01/17 11:44:35;;;;;;;22.73;9.33;;;;;;;-143.84;81.53;43883.91;5092899;28;20497;-82
2023/01/17 11:47:14;;;;;;;17.57;8.20;;;;;;;-143.84;81.58;43874.41;5093290;28;20441;-82
2023/01/17 11:49:43;;;;;;;19.60;9.40;;;;;;;-143.84;81.38;43895.34;5093107;28;20437;-82
2023/01/17 11:52:11;;;;;;;30.50;9.80;;;;;;;-143.84;80.78;43878.22;5093037;28;20479;-82
2023/01/17 11:54:41;;;;;;;19.57;8.17;;;;;;;-143.84;80.87;43861.06;5092836;28;20445;-82
2023/01/17 11:57:20;;;;;;;19.57;8.63;;;;;;;-143.84;81.01;43882.00;5093136;28;20448;-82
2023/01/17 11:59:48;;;;;;;33.23;9.43;;;;;;;-143.84;80.82;43880.13;5092513;28;20809;-82
2023/01/17 12:02:53;;;;;;;24.73;8.50;;;;;;;-143.84;81.39;43891.53;5092935;28;20422;-82
2023/01/17 12:05:47;;;;;;;32.03;9.00;;;;;;;-143.84;81.50;43895.34;5089757;28;21055;-82
2023/01/17 12:08:23;;;;;;;25.43;7.93;;;;;;;-143.84;81.36;43864.88;5092603;28;20522;-82
2023/01/17 12:11:01;;;;;;;20.53;9.27;;;;;;;-143.84;80.93;43851.56;5092792;28;20444;-82
2023/01/17 12:16:39;;;;;;;28.57;7.80;;;;;;;-143.84;81.53;43885.81;5092616;28;20415;-83
2023/01/17 12:19:26;;;;;;;25.50;7.60;;;;;;;-143.84;81.01;43868.69;5092421;28;20492;-82
2023/01/17 12:22:09;;;;;;;24.13;8.27;;;;;;;-143.84;80.00;43821.09;5092376;28;20438;-82
2023/01/17 12:25:13;;;;;;;21.03;7.43;;;;;;;-143.84;79.65;43834.44;5092093;28;20430;-82
2023/01/17 12:27:51;;;;;;;22.40;8.53;;;;;;;-143.84;80.25;43859.19;5080299;28;20866;-82
2023/01/17 12:30:31;;;;;;;16.20;6.43;;;;;;;-143.84;81.03;43872.50;5092441;28;20430;-82
2023/01/17 12:33:12;;;;;;;15.87;7.07;;;;;;;-143.84;80.62;43885.81;5092354;28;20531;-83
2023/01/17 12:35:45;;;;;;;32.00;9.13;;;;;;;-143.84;80.65;43862.97;5091892;28;20460;-82
2023/01/17 12:38:18;;;;;;;22.00;8.33;;;;;;;-143.84;80.33;43840.13;5092568;28;20420;-82
2023/01/17 12:40:51;;;;;;;19.30;7.63;;;;;;;-143.84;80.46;43815.41;5092058;28;20431;-82
2023/01/17 12:43:29;;;;;;;28.57;9.40;;;;;;;-143.84;80.36;43868.69;5091974;28;20936;-83